Time,TemperatureF,DewpointF,PressureIn,WindDirection,WindDirectionDegrees,WindSpeedMPH,WindSpeedGustMPH,Humidity,HourlyPrecipIn,Conditions,Clouds,dailyrainin,SoftwareType,DateUTC
2013-01-10 00:09:00,28.3,22.0,30.43,West,267,2.0,-999.0,78,-99.99,,,0.00,weatherlink.com 1.10,2013-01-10 05:09:00,
2013-01-10 00:24:00,27.9,22.0,30.43,WNW,288,3.0,-999.0,78,-99.99,,,0.00,weatherlink.com 1.10,2013-01-10 05:24:00,
2013-01-10 00:45:00,27.3,22.0,30.43,NW,312,3.0,-999.0,79,-99.99,,,0.00,weatherlink.com 1.10,2013-01-10 05:45:00,
2013-01-10 00:54:00,26.9,22.0,30.42,NW,312,1.0,-999.0,80,-99.99,,,0.00,weatherlink.com 1.10,2013-01-10 05:54:00,
2013-01-10 01:10:00,26.4,21.0,30.43,NW,317,1.0,-999.0,81,-99.99,,,0.00,weatherlink.com 1.10,2013-01-10 06:10:00,
2013-01-10 01:25:00,26.1,21.0,30.43,NW,317,0.0,-999.0,81,-99.99,,,0.00,weatherlink.com 1.10,2013-01-10 06:25:00,
2013-01-10 01:40:00,25.6,21.0,30.43,NW,317,0.0,-999.0,82,-99.99,,,0.00,weatherlink.com 1.10,2013-01-10 06:40:00,
2013-01-10 01:55:00,25.3,21.0,30.43,NW,317,0.0,-999.0,83,-99.99,,,0.00,weatherlink.com 1.10,2013-01-10 06:55:00,
2013-01-10 02:10:00,25.4,22.0,30.42,NW,317,0.0,-999.0,85,-99.99,,,0.00,weatherlink.com 1.10,2013-01-10 07:10:00,
2013-01-10 02:25:00,24.5,20.0,30.41,NW,317,0.0,-999.0,82,-99.99,,,0.00,weatherlink.com 1.10,2013-01-10 07:25:00,
2013-01-10 02:40:00,24.0,20.0,30.40,NW,317,0.0,-999.0,86,-99.99,,,0.00,weatherlink.com 1.10,2013-01-10 07:40:00,
2013-01-10 02:55:00,24.7,21.0,30.40,NW,318,0.0,-999.0,87,-99.99,,,0.00,weatherlink.com 1.10,2013-01-10 07:55:00,
2013-01-10 03:10:00,24.4,21.0,30.40,NW,318,0.0,-999.0,86,-99.99,,,0.00,weatherlink.com 1.10,2013-01-10 08:10:00,
2013-01-10 03:25:00,24.2,21.0,30.40,NW,318,0.0,-999.0,86,-99.99,,,0.00,weatherlink.com 1.10,2013-01-10 08:25:00,
2013-01-10 03:40:00,23.9,21.0,30.42,SW,233,0.0,-999.0,87,-99.99,,,0.00,weatherlink.com 1.10,2013-01-10 08:40:00,
2013-01-10 03:56:00,24.1,21.0,30.41,SW,223,0.0,-999.0,87,-99.99,,,0.00,weatherlink.com 1.10,2013-01-10 08:56:00,
2013-01-10 04:11:00,24.0,21.0,30.43,SW,222,0.0,-999.0,87,-99.99,,,0.00,weatherlink.com 1.10,2013-01-10 09:11:00,
2013-01-10 04:26:00,23.6,20.0,30.45,SW,223,0.0,-999.0,87,-99.99,,,0.00,weatherlink.com 1.10,2013-01-10 09:26:00,
2013-01-10 04:41:00,23.1,20.0,30.46,SW,215,0.0,-999.0,87,-99.99,,,0.00,weatherlink.com 1.10,2013-01-10 09:41:00,
2013-01-10 04:56:00,23.1,20.0,30.47,SSW,210,4.0,-999.0,88,-99.99,,,0.00,weatherlink.com 1.10,2013-01-10 09:56:00,
2013-01-10 05:11:00,22.9,20.0,30.46,SSW,195,4.0,-999.0,87,-99.99,,,0.00,weatherlink.com 1.10,2013-01-10 10:11:00,
2013-01-10 05:26:00,22.6,20.0,30.47,South,184,6.0,-999.0,88,-99.99,,,0.00,weatherlink.com 1.10,2013-01-10 10:26:00,
2013-01-10 05:41:00,22.4,19.0,30.45,SSW,202,8.0,-999.0,88,-99.99,,,0.00,weatherlink.com 1.10,2013-01-10 10:41:00,
2013-01-10 05:56:00,22.7,19.0,30.46,South,182,4.0,-999.0,87,-99.99,,,0.00,weatherlink.com 1.10,2013-01-10 10:56:00,
2013-01-10 06:11:00,22.7,19.0,30.46,SSW,207,8.0,-999.0,87,-99.99,,,0.00,weatherlink.com 1.10,2013-01-10 11:11:00,
2013-01-10 06:26:00,22.7,19.0,30.47,SSW,192,7.0,-999.0,87,-99.99,,,0.00,weatherlink.com 1.10,2013-01-10 11:26:00,
2013-01-10 06:42:00,22.6,19.0,30.48,South,191,8.0,-999.0,87,-99.99,,,0.00,weatherlink.com 1.10,2013-01-10 11:42:00,
2013-01-10 06:57:00,22.8,20.0,30.49,SW,235,11.0,-999.0,87,-99.99,,,0.00,weatherlink.com 1.10,2013-01-10 11:57:00,
2013-01-10 07:12:00,23.1,20.0,30.48,SSW,211,5.0,-999.0,87,-99.99,,,0.00,weatherlink.com 1.10,2013-01-10 12:12:00,
2013-01-10 07:27:00,23.3,20.0,30.49,SW,228,8.0,-999.0,87,-99.99,,,0.00,weatherlink.com 1.10,2013-01-10 12:27:00,
2013-01-10 07:42:00,23.6,20.0,30.49,SW,219,4.0,-999.0,86,-99.99,,,0.00,weatherlink.com 1.10,2013-01-10 12:42:00,
2013-01-10 07:57:00,23.6,20.0,30.49,South,186,3.0,-999.0,85,-99.99,,,0.00,weatherlink.com 1.10,2013-01-10 12:57:00,
2013-01-10 08:12:00,23.2,19.0,30.49,South,173,5.0,-999.0,85,-99.99,,,0.00,weatherlink.com 1.10,2013-01-10 13:12:00,
2013-01-10 08:27:00,23.1,20.0,30.48,South,188,2.0,-999.0,86,-99.99,,,0.00,weatherlink.com 1.10,2013-01-10 13:27:00,
2013-01-10 08:42:00,24.3,21.0,30.49,SSW,202,4.0,-999.0,86,-99.99,,,0.00,weatherlink.com 1.10,2013-01-10 13:42:00,
2013-01-10 08:57:00,26.3,22.0,30.49,SW,223,9.0,-999.0,82,-99.99,,,0.00,weatherlink.com 1.10,2013-01-10 13:57:00,
2013-01-10 09:12:00,27.1,21.0,30.49,SW,223,8.0,-999.0,79,-99.99,,,0.00,weatherlink.com 1.10,2013-01-10 14:12:00,
2013-01-10 09:27:00,27.5,22.0,30.48,SW,220,7.0,-999.0,78,-99.99,,,0.00,weatherlink.com 1.10,2013-01-10 14:27:00,
2013-01-10 09:43:00,27.8,21.0,30.47,South,184,4.0,-999.0,77,-99.99,,,0.00,weatherlink.com 1.10,2013-01-10 14:43:00,
2013-01-10 09:58:00,28.3,22.0,30.46,South,180,2.0,-999.0,76,-99.99,,,0.00,weatherlink.com 1.10,2013-01-10 14:58:00,
2013-01-10 10:13:00,28.9,22.0,30.46,SSW,196,4.0,-999.0,76,-99.99,,,0.00,weatherlink.com 1.10,2013-01-10 15:13:00,
2013-01-10 10:28:00,29.6,22.0,30.45,South,190,6.0,-999.0,74,-99.99,,,0.00,weatherlink.com 1.10,2013-01-10 15:28:00,
2013-01-10 10:43:00,30.1,22.0,30.45,South,188,7.0,-999.0,73,-99.99,,,0.00,weatherlink.com 1.10,2013-01-10 15:43:00,
2013-01-10 10:58:00,30.6,23.0,30.45,SSW,200,3.0,-999.0,73,-99.99,,,0.00,weatherlink.com 1.10,2013-01-10 15:58:00,
2013-01-10 11:13:00,31.1,23.0,30.44,SSW,207,9.0,-999.0,72,-99.99,,,0.00,weatherlink.com 1.10,2013-01-10 16:13:00,
2013-01-10 11:28:00,31.8,23.0,30.44,South,186,11.0,-999.0,71,-99.99,,,0.00,weatherlink.com 1.10,2013-01-10 16:28:00,
2013-01-10 11:43:00,32.5,24.0,30.44,SSE,167,7.0,-999.0,71,-99.99,,,0.00,weatherlink.com 1.10,2013-01-10 16:43:00,
2013-01-10 11:59:00,33.4,24.0,30.43,SSW,197,5.0,-999.0,69,-99.99,,,0.00,weatherlink.com 1.10,2013-01-10 16:59:00,
2013-01-10 12:14:00,34.0,24.0,30.42,South,191,8.0,-999.0,66,-99.99,,,0.00,weatherlink.com 1.10,2013-01-10 17:14:00,
2013-01-10 12:29:00,34.7,24.0,30.40,South,188,8.0,-999.0,65,-99.99,,,0.00,weatherlink.com 1.10,2013-01-10 17:29:00,
2013-01-10 12:44:00,35.2,24.0,30.39,South,176,10.0,-999.0,64,-99.99,,,0.00,weatherlink.com 1.10,2013-01-10 17:44:00,
2013-01-10 12:59:00,35.5,24.0,30.38,SSW,194,7.0,-999.0,62,-99.99,,,0.00,weatherlink.com 1.10,2013-01-10 17:59:00,
2013-01-10 13:14:00,36.2,23.0,30.38,SSW,198,12.0,-999.0,60,-99.99,,,0.00,weatherlink.com 1.10,2013-01-10 18:14:00,
2013-01-10 13:29:00,36.2,24.0,30.36,SW,217,6.0,-999.0,61,-99.99,,,0.00,weatherlink.com 1.10,2013-01-10 18:29:00,
2013-01-10 13:44:00,36.2,24.0,30.36,South,180,8.0,-999.0,61,-99.99,,,0.00,weatherlink.com 1.10,2013-01-10 18:44:00,
2013-01-10 13:59:00,36.5,24.0,30.35,SSW,196,7.0,-999.0,62,-99.99,,,0.00,weatherlink.com 1.10,2013-01-10 18:59:00,
2013-01-10 14:14:00,37.0,27.0,30.34,SSE,168,9.0,-999.0,66,-99.99,,,0.00,weatherlink.com 1.10,2013-01-10 19:14:00,
2013-01-10 14:30:00,37.7,27.0,30.34,SSE,167,10.0,-999.0,66,-99.99,,,0.00,weatherlink.com 1.10,2013-01-10 19:30:00,
2013-01-10 14:45:00,37.3,28.0,30.34,South,181,14.0,-999.0,69,-99.99,,,0.00,weatherlink.com 1.10,2013-01-10 19:45:00,
2013-01-10 15:00:00,37.1,28.0,30.33,SSW,196,6.0,-999.0,71,-99.99,,,0.00,weatherlink.com 1.10,2013-01-10 20:00:00,
2013-01-10 15:15:00,37.2,29.0,30.32,SSW,200,9.0,-999.0,71,-99.99,,,0.00,weatherlink.com 1.10,2013-01-10 20:15:00,
2013-01-10 15:30:00,37.3,29.0,30.32,SSW,192,6.0,-999.0,71,-99.99,,,0.00,weatherlink.com 1.10,2013-01-10 20:30:00,
2013-01-10 15:45:00,37.3,29.0,30.30,South,178,11.0,-999.0,71,-99.99,,,0.00,weatherlink.com 1.10,2013-01-10 20:45:00,
2013-01-10 16:00:00,37.4,29.0,30.29,South,190,12.0,-999.0,71,-99.99,,,0.00,weatherlink.com 1.10,2013-01-10 21:00:00,
2013-01-10 16:30:00,36.7,29.0,30.29,South,170,9.0,-999.0,75,-99.99,,,0.00,weatherlink.com 1.10,2013-01-10 21:30:00,
2013-01-10 16:45:00,36.1,30.0,30.29,SSE,160,14.0,-999.0,78,-99.99,,,0.00,weatherlink.com 1.10,2013-01-10 21:45:00,
2013-01-10 17:01:00,35.5,31.0,30.30,SSE,167,7.0,-999.0,82,-99.99,,,0.00,weatherlink.com 1.10,2013-01-10 22:01:00,
2013-01-10 17:16:00,35.2,31.0,30.30,South,174,10.0,-999.0,85,-99.99,,,0.00,weatherlink.com 1.10,2013-01-10 22:16:00,
2013-01-10 17:31:00,35.0,32.0,30.30,SSE,161,10.0,-999.0,88,-99.99,,,0.00,weatherlink.com 1.10,2013-01-10 22:31:00,
2013-01-10 17:46:00,35.1,32.0,30.30,South,170,9.0,-999.0,89,-99.99,,,0.00,weatherlink.com 1.10,2013-01-10 22:46:00,
2013-01-10 18:01:00,35.1,32.0,30.29,South,171,10.0,-999.0,89,-99.99,,,0.00,weatherlink.com 1.10,2013-01-10 23:01:00,
2013-01-10 18:16:00,35.0,32.0,30.29,SSW,199,15.0,-999.0,90,-99.99,,,0.00,weatherlink.com 1.10,2013-01-10 23:16:00,
2013-01-10 18:31:00,35.0,32.0,30.28,South,184,10.0,-999.0,90,-99.99,,,0.00,weatherlink.com 1.10,2013-01-10 23:31:00,
2013-01-10 19:01:00,35.0,32.0,30.26,SSE,153,7.0,-999.0,90,-99.99,,,0.00,weatherlink.com 1.10,2013-01-11 00:01:00,
2013-01-10 19:16:00,34.8,33.0,30.25,SSE,163,7.0,-999.0,91,-99.99,,,0.00,weatherlink.com 1.10,2013-01-11 00:16:00,
2013-01-10 19:31:00,34.6,32.0,30.24,SSE,166,8.0,-999.0,91,-99.99,,,0.00,weatherlink.com 1.10,2013-01-11 00:31:00,
2013-01-10 19:47:00,34.5,33.0,30.23,South,186,10.0,-999.0,92,-99.99,,,0.00,weatherlink.com 1.10,2013-01-11 00:47:00,
2013-01-10 20:02:00,34.3,32.0,30.21,SSE,152,7.0,-999.0,92,-99.99,,,0.00,weatherlink.com 1.10,2013-01-11 01:02:00,
2013-01-10 20:17:00,34.1,32.0,30.20,SSE,150,9.0,-999.0,91,-99.99,,,0.00,weatherlink.com 1.10,2013-01-11 01:17:00,
2013-01-10 20:32:00,34.0,31.0,30.19,SSE,157,8.0,-999.0,90,-99.99,,,0.00,weatherlink.com 1.10,2013-01-11 01:32:00,
2013-01-10 20:47:00,34.0,31.0,30.18,SSE,151,10.0,-999.0,89,-99.99,,,0.00,weatherlink.com 1.10,2013-01-11 01:47:00,
2013-01-10 21:02:00,33.9,31.0,30.17,SSE,151,12.0,-999.0,89,-99.99,,,0.00,weatherlink.com 1.10,2013-01-11 02:02:00,
2013-01-10 21:17:00,33.9,31.0,30.16,South,170,6.0,-999.0,88,-99.99,,,0.00,weatherlink.com 1.10,2013-01-11 02:17:00,
2013-01-10 21:32:00,33.9,31.0,30.15,SSE,168,9.0,-999.0,88,-99.99,,,0.00,weatherlink.com 1.10,2013-01-11 02:32:00,
2013-01-10 21:47:00,34.0,31.0,30.14,SE,146,9.0,-999.0,87,-99.99,,,0.00,weatherlink.com 1.10,2013-01-11 02:47:00,
2013-01-10 22:03:00,34.3,31.0,30.13,SSE,156,8.0,-999.0,86,-99.99,,,0.00,weatherlink.com 1.10,2013-01-11 03:03:00,
2013-01-10 22:18:00,34.6,31.0,30.11,SSE,162,9.0,-999.0,85,-99.99,,,0.00,weatherlink.com 1.10,2013-01-11 03:18:00,
2013-01-10 22:33:00,35.1,30.0,30.10,SSE,163,11.0,-999.0,83,-99.99,,,0.00,weatherlink.com 1.10,2013-01-11 03:33:00,
2013-01-10 22:48:00,35.9,31.0,30.08,SSE,151,11.0,-999.0,81,-99.99,,,0.00,weatherlink.com 1.10,2013-01-11 03:48:00,
2013-01-10 23:03:00,36.6,30.0,30.07,SSE,163,13.0,-999.0,78,-99.99,,,0.00,weatherlink.com 1.10,2013-01-11 04:03:00,
2013-01-10 23:18:00,36.9,31.0,30.06,SSE,155,12.0,-999.0,78,-99.99,,,0.00,weatherlink.com 1.10,2013-01-11 04:18:00,
2013-01-10 23:33:00,36.8,31.0,30.06,South,170,12.0,-999.0,78,-99.99,,,0.00,weatherlink.com 1.10,2013-01-11 04:33:00,
2013-01-10 23:48:00,36.5,31.0,30.04,SSE,163,12.0,-999.0,80,-99.99,,,0.00,weatherlink.com 1.10,2013-01-11 04:48:00,